Home PIREPS Pireps

Flight SAB3753

  • Submitted By: Vincent Fourni
  • Departure Airport: Bruxelles National (EBBR)
  • Arrival Airport: Valencia / Aeropuerto (LEVC)
  • Aircraft: B737-500 (OO-SAB)
  • Flight Time: 02.24
  • Date Submitted: 16/04/2016
  • Status: Accepted
Flight Details
Gross Revenue:
(116 load / € 0.00 per unit
€ 0.00
Fuel Cost:
(6459 fuel used @ 5.1 / unit)
€ 32,940.90

Additional Log Information:

View Log

Aircraft Used in flight is Jetairfly 737-800
16:18 Brakes are On
16:20 Brakes are Released
16:22 Brakes are On
16:30 Brakes are Released
16:31 Brakes are On
16:31 Brakes are Released
16:38 Brakes are On
16:38 Brakes are Released
16:41 Brakes are On
16:41 Brakes are Released
16:41 You Took off @ 141 Knots and Flaps at Position 3
Departure Weather
EBBR 161420Z 30010KT 270V330 9999 SCT028 BKN045 10/05 Q1003 NOSIGrn
16:42 Landing Gear Up @ 150 Knots and 700 Feet
16:45 Above FL100 you need to switch of the landing lights
17:40 Brakes are On
17:40 Brakes are Released
18:23 Below 10000 feet you are not allowed to go over 250 knots
18:34 Landing Gear Down @ 170 Knots and 4130 Feet
18:39 You Landed @ 106 Knots and with -1800 Vertical Speed
Arrival Weather
LEVC 161600Z 13009KT 100V160 9999 FEW035 24/11 Q1008 WS R30 NOSIGrn
18:39 Your Landing was very hard
18:42 Brakes are On
18:43 Brussels Bel-Track1.0.1.2

Route Map

Corporate About Us Our Team Vacancies Information Fleet Route Network Rules and Regulations Operations Flight Schedules Event Center Tours Partners IVAO Vatsim Acars dev FSCB

fb Users Online Belgium Dominique Dory, South Africa Marc Toussaint,
2 Pilot(s) and 133 Guest(s) Online
CMS by phpVMS - Design by Crazycreatives.com - Copyright © 2020 - Brussels Airlines Virtual